createdAt,value
2023-04-30T00:00:51.421Z,993.97
2023-04-30T00:01:51.390Z,994.01
2023-04-30T00:02:51.312Z,993.97
2023-04-30T00:03:51.237Z,993.97
2023-04-30T00:04:51.090Z,993.93
2023-04-30T00:05:51.014Z,993.92
2023-04-30T00:06:50.933Z,993.94
2023-04-30T00:07:50.852Z,993.90
2023-04-30T00:08:50.777Z,993.88
2023-04-30T00:09:50.698Z,993.92
2023-04-30T00:10:50.611Z,993.92
2023-04-30T00:11:50.535Z,993.90
2023-04-30T00:12:50.450Z,993.93
2023-04-30T00:13:50.366Z,993.93
2023-04-30T00:14:50.294Z,993.94
2023-04-30T00:15:50.206Z,993.98
2023-04-30T00:16:50.177Z,993.96
2023-04-30T00:17:50.088Z,993.98
2023-04-30T00:18:49.968Z,993.95
2023-04-30T00:19:50.214Z,993.99
2023-04-30T00:20:49.805Z,993.99
2023-04-30T00:21:49.728Z,993.96
2023-04-30T00:22:49.642Z,993.95
2023-04-30T00:23:49.561Z,993.96
2023-04-30T00:24:49.482Z,993.99
2023-04-30T00:25:49.551Z,993.99
2023-04-30T00:26:49.329Z,993.99
2023-04-30T00:27:49.237Z,993.99
2023-04-30T00:28:49.157Z,993.98
2023-04-30T00:29:49.073Z,994.05
2023-04-30T00:30:48.998Z,994.07
2023-04-30T00:31:49.032Z,994.06
2023-04-30T00:32:48.915Z,994.05
2023-04-30T00:33:48.960Z,994.08
2023-04-30T00:34:48.676Z,994.08
2023-04-30T00:35:48.611Z,994.08
2023-04-30T00:36:48.523Z,994.09
2023-04-30T00:37:48.428Z,994.10
2023-04-30T00:38:48.359Z,994.10
2023-04-30T00:39:48.315Z,994.07
2023-04-30T00:40:48.189Z,994.11
2023-04-30T00:41:48.106Z,994.07
2023-04-30T00:42:48.023Z,994.14
2023-04-30T00:43:48.294Z,994.10
2023-04-30T00:44:47.864Z,994.13
2023-04-30T00:45:47.827Z,994.14
2023-04-30T00:46:47.706Z,994.12
2023-04-30T00:47:47.683Z,994.19
2023-04-30T00:48:47.561Z,994.15
2023-04-30T00:49:47.459Z,994.17
2023-04-30T00:50:47.383Z,994.15
2023-04-30T00:51:47.323Z,994.19
2023-04-30T00:52:48.027Z,994.18
2023-04-30T00:53:47.135Z,994.20
2023-04-30T00:54:47.109Z,994.16
2023-04-30T00:55:46.973Z,994.18
2023-04-30T00:56:46.974Z,994.16
2023-04-30T00:57:46.813Z,994.17
2023-04-30T00:58:46.733Z,994.18
2023-04-30T00:59:46.653Z,994.17
2023-04-30T01:00:46.570Z,994.16
2023-04-30T01:01:46.563Z,994.20
2023-04-30T01:02:46.864Z,994.20
2023-04-30T01:03:46.371Z,994.18
2023-04-30T01:04:46.247Z,994.23
2023-04-30T01:05:46.178Z,994.22
2023-04-30T01:06:46.090Z,994.23
2023-04-30T01:07:46.029Z,994.25
2023-04-30T01:08:45.922Z,994.24
2023-04-30T01:09:45.847Z,994.24
2023-04-30T01:10:45.772Z,994.21
2023-04-30T01:11:45.680Z,994.22
2023-04-30T01:12:45.605Z,994.24
2023-04-30T01:13:45.517Z,994.23
2023-04-30T01:14:45.439Z,994.22
2023-04-30T01:15:45.393Z,994.19
2023-04-30T01:16:45.276Z,994.18
2023-04-30T01:17:45.230Z,994.24
2023-04-30T01:18:45.174Z,994.25
2023-04-30T01:19:45.031Z,994.24
2023-04-30T01:20:44.952Z,994.23
2023-04-30T01:21:44.882Z,994.23
2023-04-30T01:22:44.796Z,994.23
2023-04-30T01:23:44.830Z,994.21
2023-04-30T01:24:44.628Z,994.22
2023-04-30T01:25:44.548Z,994.20
2023-04-30T01:26:44.477Z,994.26
2023-04-30T01:27:44.394Z,994.19
2023-04-30T01:28:44.306Z,994.20
2023-04-30T01:29:44.222Z,994.19
2023-04-30T01:30:44.144Z,994.22
2023-04-30T01:31:44.169Z,994.19
2023-04-30T01:32:44.008Z,994.17
2023-04-30T01:33:43.898Z,994.17
2023-04-30T01:35:36.502Z,994.20
2023-04-30T01:36:36.224Z,994.19
2023-04-30T01:37:36.152Z,994.18
2023-04-30T01:48:19.336Z,994.15
2023-04-30T01:49:19.230Z,994.15
2023-04-30T01:50:19.149Z,994.14
2023-04-30T01:51:19.069Z,994.16
2023-04-30T01:52:18.987Z,994.15
2023-04-30T01:53:18.903Z,994.17
2023-04-30T01:54:18.821Z,994.18
2023-04-30T01:55:18.742Z,994.19
2023-04-30T01:56:18.661Z,994.17
2023-04-30T01:57:18.579Z,994.17
2023-04-30T01:58:18.518Z,994.17
2023-04-30T01:59:18.415Z,994.18
2023-04-30T02:00:18.348Z,994.22
2023-04-30T02:01:18.265Z,994.18
2023-04-30T02:02:18.176Z,994.22
2023-04-30T02:03:18.374Z,994.16
2023-04-30T02:04:18.036Z,994.16
2023-04-30T02:05:17.933Z,994.16
2023-04-30T02:06:17.892Z,994.15
2023-04-30T02:07:17.767Z,994.16
2023-04-30T02:08:17.695Z,994.16
2023-04-30T02:09:17.622Z,994.14
2023-04-30T02:10:17.527Z,994.13
2023-04-30T02:11:17.447Z,994.14
2023-04-30T02:12:17.365Z,994.10
2023-04-30T02:13:17.280Z,994.17
2023-04-30T02:14:17.208Z,994.16
2023-04-30T02:15:17.117Z,994.19
2023-04-30T02:16:17.095Z,994.19
2023-04-30T02:17:16.958Z,994.23
2023-04-30T02:18:16.949Z,994.25
2023-04-30T02:19:16.830Z,994.23
2023-04-30T02:20:16.731Z,994.27
2023-04-30T02:21:16.629Z,994.23
2023-04-30T02:22:16.548Z,994.26
2023-04-30T02:23:16.466Z,994.26
2023-04-30T02:24:16.394Z,994.26
2023-04-30T02:25:16.311Z,994.28
2023-04-30T02:26:16.224Z,994.27
2023-04-30T02:27:16.141Z,994.30
2023-04-30T02:28:16.064Z,994.26
2023-04-30T02:29:15.979Z,994.26
2023-04-30T02:30:15.906Z,994.27
2023-04-30T02:31:15.838Z,994.29
2023-04-30T02:32:15.937Z,994.28
2023-04-30T02:33:15.655Z,994.29
2023-04-30T02:34:15.575Z,994.25
2023-04-30T02:35:15.490Z,994.26
2023-04-30T02:36:15.449Z,994.25
2023-04-30T02:37:15.336Z,994.21
2023-04-30T02:38:15.258Z,994.24
2023-04-30T02:39:15.166Z,994.24
2023-04-30T02:40:15.085Z,994.25
2023-04-30T02:41:15.019Z,994.24
2023-04-30T02:42:14.923Z,994.26
2023-04-30T02:43:14.850Z,994.24
2023-04-30T02:44:14.763Z,994.22
2023-04-30T02:45:14.681Z,994.26
2023-04-30T02:46:14.664Z,994.26
2023-04-30T02:47:14.516Z,994.25
2023-04-30T02:48:14.432Z,994.23
2023-04-30T02:49:14.353Z,994.24
2023-04-30T02:50:14.274Z,994.25
2023-04-30T02:51:14.193Z,994.20
2023-04-30T02:52:14.130Z,994.21
2023-04-30T02:53:14.026Z,994.17
2023-04-30T02:54:14.198Z,994.21
2023-04-30T02:55:13.872Z,994.22
2023-04-30T02:56:13.783Z,994.21
2023-04-30T02:57:13.706Z,994.24
2023-04-30T02:58:13.633Z,994.25
2023-04-30T02:59:13.540Z,994.26
2023-04-30T03:00:13.466Z,994.21
2023-04-30T03:01:13.397Z,994.17
2023-04-30T03:02:13.333Z,994.23
2023-04-30T03:03:13.418Z,994.17
2023-04-30T03:04:13.135Z,994.19
2023-04-30T03:05:13.074Z,994.18
2023-04-30T03:06:13.030Z,994.20
2023-04-30T03:07:12.888Z,994.17
2023-04-30T03:08:12.844Z,994.18
2023-04-30T03:09:12.733Z,994.18
2023-04-30T03:10:12.657Z,994.16
2023-04-30T03:11:12.562Z,994.17
2023-04-30T03:12:12.484Z,994.16
2023-04-30T03:13:12.421Z,994.15
2023-04-30T03:14:12.727Z,994.17
2023-04-30T03:15:12.618Z,994.16
2023-04-30T03:16:12.231Z,994.15
2023-04-30T03:17:12.090Z,994.17
2023-04-30T03:18:12.078Z,994.16
2023-04-30T03:19:11.913Z,994.15
2023-04-30T03:20:11.838Z,994.20
2023-04-30T03:21:11.751Z,994.20
2023-04-30T03:22:11.672Z,994.21
2023-04-30T03:23:11.587Z,994.20
2023-04-30T03:24:11.582Z,994.15
2023-04-30T03:25:11.427Z,994.17
2023-04-30T03:26:11.363Z,994.19
2023-04-30T03:27:11.264Z,994.22
2023-04-30T03:28:11.193Z,994.19
2023-04-30T03:29:11.111Z,994.20
2023-04-30T03:30:11.025Z,994.23
2023-04-30T03:31:11.017Z,994.16
2023-04-30T03:32:10.871Z,994.16
2023-04-30T03:33:10.891Z,994.18
2023-04-30T03:34:10.699Z,994.17
2023-04-30T03:35:10.765Z,994.16
2023-04-30T03:36:10.541Z,994.14
2023-04-30T03:37:10.460Z,994.17
2023-04-30T03:38:10.369Z,994.15
2023-04-30T03:39:10.490Z,994.20
2023-04-30T03:40:10.241Z,994.20
2023-04-30T03:41:10.132Z,994.20
2023-04-30T03:42:10.050Z,994.16
2023-04-30T03:43:09.981Z,994.17
2023-04-30T03:44:09.883Z,994.15
2023-04-30T03:45:09.800Z,994.15
2023-04-30T03:46:09.742Z,994.13
2023-04-30T03:47:09.643Z,994.14
2023-04-30T03:48:09.633Z,994.12
2023-04-30T03:49:09.481Z,994.15
2023-04-30T03:50:09.405Z,994.15
2023-04-30T03:51:09.309Z,994.15
2023-04-30T03:52:09.235Z,994.16
2023-04-30T03:53:09.401Z,994.13
2023-04-30T03:54:09.085Z,994.15
2023-04-30T03:55:08.992Z,994.13
2023-04-30T03:56:08.927Z,994.12
2023-04-30T03:57:08.825Z,994.12
2023-04-30T03:58:08.774Z,994.09
2023-04-30T03:59:08.663Z,994.11
2023-04-30T04:00:08.585Z,994.08
2023-04-30T04:01:08.553Z,994.05
2023-04-30T04:02:08.533Z,994.07
2023-04-30T04:03:08.393Z,994.09
2023-04-30T04:04:08.305Z,994.09
2023-04-30T04:05:08.180Z,994.10
2023-04-30T04:06:08.114Z,994.09
2023-04-30T04:07:08.072Z,994.09
2023-04-30T04:08:07.933Z,994.08
2023-04-30T04:09:07.857Z,994.10
2023-04-30T04:10:07.769Z,994.10
2023-04-30T04:11:07.697Z,994.12
2023-04-30T04:12:07.694Z,994.10
2023-04-30T04:13:07.545Z,994.15
2023-04-30T04:14:07.444Z,994.16
2023-04-30T04:15:07.375Z,994.14
2023-04-30T04:16:07.310Z,994.09
2023-04-30T04:17:07.398Z,994.12
2023-04-30T04:18:07.185Z,994.11
2023-04-30T04:19:07.033Z,994.18
2023-04-30T04:20:06.955Z,994.18
2023-04-30T04:21:06.876Z,994.14
2023-04-30T04:22:06.796Z,994.17
2023-04-30T04:23:06.863Z,994.17
2023-04-30T04:24:06.697Z,994.19
2023-04-30T04:25:06.548Z,994.16
2023-04-30T04:26:06.470Z,994.22
2023-04-30T04:27:06.583Z,994.26
2023-04-30T04:28:06.328Z,994.26
2023-04-30T04:29:06.225Z,994.27
2023-04-30T04:30:06.138Z,994.29
2023-04-30T04:31:06.061Z,994.29
2023-04-30T04:32:06.075Z,994.31
2023-04-30T04:33:05.994Z,994.28
2023-04-30T04:34:05.896Z,994.33
2023-04-30T04:35:05.735Z,994.35
2023-04-30T04:36:05.655Z,994.36
2023-04-30T04:37:05.568Z,994.35
2023-04-30T04:38:05.490Z,994.37
2023-04-30T04:39:05.402Z,994.40
2023-04-30T04:40:05.322Z,994.38
2023-04-30T04:41:05.273Z,994.36
2023-04-30T04:42:05.273Z,994.40
2023-04-30T04:43:05.083Z,994.36
2023-04-30T04:44:05.030Z,994.39
2023-04-30T04:45:04.914Z,994.37
2023-04-30T04:46:04.880Z,994.36
2023-04-30T04:47:04.752Z,994.34
2023-04-30T04:48:04.715Z,994.34
2023-04-30T04:49:04.591Z,994.34
2023-04-30T04:50:04.513Z,994.31
2023-04-30T04:51:04.443Z,994.32
2023-04-30T04:52:04.352Z,994.33
2023-04-30T04:53:04.269Z,994.33
2023-04-30T04:54:04.185Z,994.37
2023-04-30T04:55:04.109Z,994.38
2023-04-30T04:56:04.031Z,994.40
2023-04-30T04:57:03.940Z,994.40
2023-04-30T04:58:03.856Z,994.39
2023-04-30T04:59:03.776Z,994.44
2023-04-30T05:00:03.714Z,994.42
2023-04-30T05:01:03.612Z,994.44
2023-04-30T05:02:03.729Z,994.44
2023-04-30T05:03:03.566Z,994.43
2023-04-30T05:04:03.442Z,994.43
2023-04-30T05:05:03.338Z,994.44
2023-04-30T05:06:03.251Z,994.42
2023-04-30T05:07:03.132Z,994.45
2023-04-30T05:08:03.058Z,994.42
2023-04-30T05:09:02.963Z,994.41
2023-04-30T05:10:03.087Z,994.40
2023-04-30T05:11:02.811Z,994.44
2023-04-30T05:12:02.731Z,994.38
2023-04-30T05:13:02.641Z,994.44
2023-04-30T05:14:02.560Z,994.42
2023-04-30T05:15:02.536Z,994.40
2023-04-30T05:16:02.585Z,994.41
2023-04-30T05:17:02.317Z,994.47
2023-04-30T05:18:02.292Z,994.43
2023-04-30T05:19:02.155Z,994.47
2023-04-30T05:20:02.333Z,994.43
2023-04-30T05:21:01.998Z,994.46
2023-04-30T05:22:01.911Z,994.44
2023-04-30T05:23:01.832Z,994.45
2023-04-30T05:24:01.752Z,994.47
2023-04-30T05:25:01.680Z,994.48
2023-04-30T05:26:01.590Z,994.49
2023-04-30T05:27:01.508Z,994.52
2023-04-30T05:28:01.431Z,994.47
2023-04-30T05:29:01.367Z,994.49
2023-04-30T05:30:01.279Z,994.52
2023-04-30T05:31:01.206Z,994.49
2023-04-30T05:32:01.159Z,994.53
2023-04-30T05:33:01.048Z,994.50
2023-04-30T05:34:00.953Z,994.55
2023-04-30T05:35:00.878Z,994.49
2023-04-30T05:36:00.791Z,994.50
2023-04-30T05:37:00.700Z,994.51
2023-04-30T05:38:00.624Z,994.51
2023-04-30T05:39:00.604Z,994.52
2023-04-30T05:40:00.463Z,994.49
2023-04-30T05:41:00.388Z,994.50
2023-04-30T05:42:00.603Z,994.48
2023-04-30T05:43:00.221Z,994.50
2023-04-30T05:44:00.155Z,994.50
2023-04-30T05:45:00.060Z,994.55
2023-04-30T05:46:00.015Z,994.55
2023-04-30T05:46:59.900Z,994.51
2023-04-30T05:47:59.891Z,994.51
2023-04-30T05:48:59.737Z,994.55
2023-04-30T05:49:59.658Z,994.57
2023-04-30T05:50:59.575Z,994.51
2023-04-30T05:51:59.507Z,994.55
2023-04-30T05:52:59.423Z,994.55
2023-04-30T05:53:59.337Z,994.52
2023-04-30T05:54:59.258Z,994.54
2023-04-30T05:55:59.180Z,994.56
2023-04-30T05:56:59.121Z,994.53
2023-04-30T05:57:59.020Z,994.55
2023-04-30T05:58:58.951Z,994.55
2023-04-30T05:59:58.858Z,994.57
2023-04-30T06:00:58.782Z,994.54
2023-04-30T06:01:58.745Z,994.56
2023-04-30T06:02:58.656Z,994.56
2023-04-30T06:03:58.778Z,994.58
2023-04-30T06:04:58.480Z,994.53
2023-04-30T06:05:58.462Z,994.59
2023-04-30T06:06:58.303Z,994.55
2023-04-30T06:07:58.231Z,994.54
2023-04-30T06:08:58.142Z,994.55
2023-04-30T06:09:58.211Z,994.56
2023-04-30T06:10:57.977Z,994.56
2023-04-30T06:11:57.899Z,994.58
2023-04-30T06:12:57.820Z,994.59
2023-04-30T06:13:57.740Z,994.59
2023-04-30T06:14:57.660Z,994.60
2023-04-30T06:15:57.726Z,994.58
2023-04-30T06:16:57.706Z,994.59
2023-04-30T06:17:57.469Z,994.60
2023-04-30T06:18:57.338Z,994.60
2023-04-30T06:19:57.615Z,994.57
2023-04-30T06:20:57.380Z,994.60
2023-04-30T06:21:57.112Z,994.60
2023-04-30T06:22:57.020Z,994.58
2023-04-30T06:23:56.963Z,994.61
2023-04-30T06:24:56.864Z,994.59
2023-04-30T06:25:56.791Z,994.57
2023-04-30T06:26:56.700Z,994.63
2023-04-30T06:27:56.620Z,994.60
2023-04-30T06:28:56.560Z,994.61
2023-04-30T06:29:56.771Z,994.62
2023-04-30T06:30:56.414Z,994.62
2023-04-30T06:31:56.836Z,994.58
2023-04-30T06:32:56.249Z,994.60
2023-04-30T06:33:56.149Z,994.62
2023-04-30T06:34:56.069Z,994.60
2023-04-30T06:35:56.021Z,994.57
2023-04-30T06:36:55.907Z,994.59
2023-04-30T06:37:55.822Z,994.57
2023-04-30T06:38:55.742Z,994.57
2023-04-30T06:39:55.849Z,994.57
2023-04-30T06:40:55.592Z,994.55
2023-04-30T06:41:55.509Z,994.56
2023-04-30T06:42:55.423Z,994.53
2023-04-30T06:43:55.343Z,994.53
2023-04-30T06:44:55.268Z,994.46
2023-04-30T06:45:55.275Z,994.51
2023-04-30T06:46:55.357Z,994.52
2023-04-30T06:47:55.068Z,994.52
2023-04-30T06:48:54.947Z,994.54
2023-04-30T06:49:55.026Z,994.53
2023-04-30T06:50:54.789Z,994.48
2023-04-30T06:51:54.733Z,994.48
2023-04-30T06:52:54.629Z,994.49
2023-04-30T07:03:13.006Z,994.44
2023-04-30T07:04:12.715Z,994.46
2023-04-30T07:05:12.820Z,994.43
2023-04-30T07:06:12.645Z,994.44
2023-04-30T07:07:12.496Z,994.43
2023-04-30T07:08:12.449Z,994.46
2023-04-30T07:09:12.323Z,994.43
2023-04-30T07:10:12.237Z,994.48
2023-04-30T07:11:12.167Z,994.50
2023-04-30T07:12:12.287Z,994.43
2023-04-30T07:13:12.001Z,994.42
2023-04-30T07:14:11.920Z,994.46
2023-04-30T07:15:11.843Z,994.45
2023-04-30T07:16:11.808Z,994.49
2023-04-30T07:17:11.686Z,994.55
2023-04-30T07:18:11.661Z,994.48
2023-04-30T07:19:11.532Z,994.51
2023-04-30T07:20:11.448Z,994.51
2023-04-30T07:21:11.631Z,994.45
2023-04-30T07:22:11.290Z,994.49
2023-04-30T07:24:03.845Z,994.51
2023-04-30T07:25:03.618Z,994.52
2023-04-30T07:26:03.540Z,994.49
2023-04-30T07:27:03.484Z,994.51
2023-04-30T07:28:03.378Z,994.47
2023-04-30T07:29:03.298Z,994.51
2023-04-30T07:30:03.223Z,994.44
2023-04-30T07:31:03.164Z,994.44
2023-04-30T07:32:03.151Z,994.48
2023-04-30T07:33:03.139Z,994.47
2023-04-30T07:34:02.918Z,994.46
2023-04-30T07:35:02.835Z,994.54
2023-04-30T07:36:02.748Z,994.47
2023-04-30T07:37:02.667Z,994.49
2023-04-30T07:38:02.598Z,994.49
2023-04-30T07:39:02.514Z,994.52
2023-04-30T07:40:02.449Z,994.46
2023-04-30T07:41:02.354Z,994.49
2023-04-30T07:42:02.274Z,994.47
2023-04-30T07:43:02.199Z,994.45
2023-04-30T07:44:02.115Z,994.45
2023-04-30T07:45:02.040Z,994.46
2023-04-30T07:46:01.997Z,994.43
2023-04-30T07:47:01.887Z,994.45
2023-04-30T07:48:01.888Z,994.46
2023-04-30T07:49:01.722Z,994.45
2023-04-30T07:50:01.646Z,994.54
2023-04-30T07:51:01.564Z,994.58
2023-04-30T07:52:01.520Z,994.54
2023-04-30T07:53:01.417Z,994.49
2023-04-30T07:54:01.330Z,994.53
2023-04-30T07:55:01.249Z,994.49
2023-04-30T07:56:01.275Z,994.53
2023-04-30T07:57:01.126Z,994.43
2023-04-30T07:58:01.023Z,994.39
2023-04-30T07:59:00.937Z,994.47
2023-04-30T08:00:00.923Z,994.49
2023-04-30T08:01:00.778Z,994.57
2023-04-30T08:02:00.711Z,994.56
2023-04-30T08:03:00.956Z,994.51
2023-04-30T08:04:00.636Z,994.56
2023-04-30T08:05:00.476Z,994.53
2023-04-30T08:06:00.421Z,994.51
2023-04-30T08:07:42.793Z,994.55
2023-04-30T08:08:42.713Z,994.62
2023-04-30T08:09:42.633Z,994.57
2023-04-30T08:10:42.550Z,994.53
2023-04-30T08:11:42.695Z,994.53
2023-04-30T08:12:42.396Z,994.55
2023-04-30T08:13:42.318Z,994.55
2023-04-30T08:14:42.239Z,994.55
2023-04-30T08:15:42.163Z,994.55
2023-04-30T08:16:42.124Z,994.57
2023-04-30T08:17:42.020Z,994.56
2023-04-30T08:18:41.927Z,994.63
2023-04-30T08:19:41.860Z,994.58
2023-04-30T08:20:41.771Z,994.57
2023-04-30T08:21:41.692Z,994.57
2023-04-30T08:22:41.611Z,994.54
2023-04-30T08:23:44.156Z,994.55
2023-04-30T08:24:41.459Z,994.52
2023-04-30T08:25:41.378Z,994.55
2023-04-30T08:26:41.299Z,994.54
2023-04-30T08:27:41.255Z,994.54
2023-04-30T08:28:41.156Z,994.51
2023-04-30T08:29:41.073Z,994.58
2023-04-30T08:30:40.985Z,994.60
2023-04-30T08:31:40.986Z,994.55
2023-04-30T08:32:40.882Z,994.57
2023-04-30T08:33:40.753Z,994.56
2023-04-30T08:34:40.687Z,994.53
2023-04-30T08:35:40.604Z,994.53
2023-04-30T08:36:40.527Z,994.51
2023-04-30T08:37:40.441Z,994.52
2023-04-30T08:38:40.392Z,994.48
2023-04-30T08:39:40.452Z,994.50
2023-04-30T08:40:51.045Z,994.45
2023-04-30T08:41:40.128Z,994.43
2023-04-30T08:42:40.399Z,994.45
2023-04-30T08:43:39.989Z,994.45
2023-04-30T08:44:39.976Z,994.40
2023-04-30T08:45:39.894Z,994.44
2023-04-30T08:46:39.900Z,994.40
2023-04-30T08:47:39.748Z,994.43
2023-04-30T08:48:39.583Z,994.46
2023-04-30T08:49:39.500Z,994.46
2023-04-30T08:50:39.427Z,994.42
2023-04-30T08:51:39.348Z,994.50
2023-04-30T08:52:39.445Z,994.49
2023-04-30T08:53:39.191Z,994.45
2023-04-30T08:54:39.113Z,994.48
2023-04-30T08:55:39.039Z,994.46
2023-04-30T08:56:38.959Z,994.44
2023-04-30T08:57:38.899Z,994.50
2023-04-30T08:58:38.803Z,994.51
2023-04-30T08:59:38.747Z,994.54
2023-04-30T09:00:38.655Z,994.50
2023-04-30T09:01:38.610Z,994.49
2023-04-30T09:02:38.543Z,994.48
2023-04-30T09:03:38.550Z,994.42
2023-04-30T09:04:38.339Z,994.46
2023-04-30T09:05:38.267Z,994.42
2023-04-30T09:06:38.275Z,994.44
2023-04-30T09:07:39.947Z,994.46
2023-04-30T09:08:38.032Z,994.48
2023-04-30T09:09:37.956Z,994.49
2023-04-30T09:10:37.874Z,994.53
2023-04-30T09:11:37.798Z,994.47
2023-04-30T09:12:37.968Z,994.43
2023-04-30T09:13:37.644Z,994.41
2023-04-30T09:14:37.566Z,994.41
2023-04-30T09:15:37.715Z,994.37
2023-04-30T09:16:37.466Z,994.43
2023-04-30T09:17:37.348Z,994.40
2023-04-30T09:18:37.254Z,994.34
2023-04-30T09:19:37.277Z,994.34
2023-04-30T09:20:37.100Z,994.35
2023-04-30T09:21:37.033Z,994.34
2023-04-30T09:22:36.947Z,994.39
2023-04-30T09:23:36.871Z,994.37
2023-04-30T09:24:36.792Z,994.37
2023-04-30T09:25:36.715Z,994.46
2023-04-30T09:26:36.648Z,994.48
2023-04-30T09:27:36.558Z,994.43
2023-04-30T09:28:36.479Z,994.37
2023-04-30T09:29:36.405Z,994.41
2023-04-30T09:30:36.327Z,994.41
2023-04-30T09:31:36.356Z,994.38
2023-04-30T09:32:36.217Z,994.35
2023-04-30T09:33:36.096Z,994.34
2023-04-30T09:34:36.173Z,994.31
2023-04-30T09:35:35.942Z,994.32
2023-04-30T09:36:35.885Z,994.33
2023-04-30T09:37:35.786Z,994.35
2023-04-30T09:38:35.709Z,994.34
2023-04-30T09:39:35.634Z,994.32
2023-04-30T09:40:35.758Z,994.24
2023-04-30T09:41:35.481Z,994.32
2023-04-30T09:42:35.401Z,994.34
2023-04-30T09:43:35.327Z,994.28
2023-04-30T09:44:35.246Z,994.26
2023-04-30T09:45:35.174Z,994.29
2023-04-30T09:46:35.133Z,994.28
2023-04-30T09:47:35.213Z,994.30
2023-04-30T09:48:34.987Z,994.30
2023-04-30T09:49:34.864Z,994.20
2023-04-30T09:50:35.036Z,994.22
2023-04-30T09:51:34.713Z,994.16
2023-04-30T09:52:34.629Z,994.19
2023-04-30T09:53:34.656Z,994.28
2023-04-30T09:54:34.475Z,994.23
2023-04-30T09:55:34.402Z,994.18
2023-04-30T09:56:34.326Z,994.15
2023-04-30T09:57:34.249Z,994.18
2023-04-30T09:58:34.315Z,994.16
2023-04-30T09:59:34.095Z,994.17
2023-04-30T10:00:34.031Z,994.19
2023-04-30T10:01:33.934Z,994.19
2023-04-30T10:02:33.879Z,994.17
2023-04-30T10:03:33.848Z,994.20
2023-04-30T10:04:33.703Z,994.29
2023-04-30T10:05:33.643Z,994.02
2023-04-30T10:06:33.595Z,994.16
2023-04-30T10:07:33.469Z,994.12
2023-04-30T10:08:33.394Z,994.13
2023-04-30T10:09:33.321Z,994.11
2023-04-30T10:10:33.241Z,994.12
2023-04-30T10:11:33.362Z,994.14
2023-04-30T10:12:33.088Z,994.11
2023-04-30T10:13:33.209Z,993.99
2023-04-30T10:14:32.941Z,993.95
2023-04-30T10:15:32.852Z,994.00
2023-04-30T10:16:32.815Z,993.96
2023-04-30T10:17:32.709Z,994.07
2023-04-30T10:18:32.622Z,994.04
2023-04-30T10:19:32.567Z,994.09
2023-04-30T10:20:32.474Z,993.92
2023-04-30T10:21:32.393Z,993.94
2023-04-30T10:22:32.326Z,993.93
2023-04-30T10:23:32.238Z,993.88
2023-04-30T10:24:32.563Z,993.83
2023-04-30T10:25:32.083Z,993.86
2023-04-30T10:26:32.002Z,993.84
2023-04-30T10:27:31.929Z,993.88
2023-04-30T10:28:31.851Z,993.90
2023-04-30T10:29:31.805Z,993.98
2023-04-30T10:30:31.719Z,993.85
2023-04-30T10:31:31.681Z,993.89
2023-04-30T10:32:31.674Z,993.87
2023-04-30T10:33:31.465Z,993.86
2023-04-30T10:34:31.387Z,993.84
2023-04-30T10:35:31.331Z,993.81
2023-04-30T10:36:31.243Z,993.82
2023-04-30T10:37:31.163Z,993.80
2023-04-30T10:38:31.080Z,993.81
2023-04-30T10:39:31.010Z,993.81
2023-04-30T10:40:30.929Z,993.78
2023-04-30T10:41:30.857Z,993.77
2023-04-30T10:42:30.777Z,993.71
2023-04-30T10:43:30.704Z,993.78
2023-04-30T10:44:30.647Z,993.71
2023-04-30T10:45:30.548Z,993.71
2023-04-30T10:46:30.525Z,993.74
2023-04-30T10:49:56.437Z,993.60
2023-04-30T10:50:55.978Z,993.65
2023-04-30T10:51:55.881Z,993.68
2023-04-30T10:52:55.903Z,993.70
2023-04-30T10:53:55.748Z,993.73
2023-04-30T10:54:55.660Z,993.74
2023-04-30T10:55:55.928Z,993.70
2023-04-30T10:56:55.552Z,993.73
2023-04-30T10:57:55.427Z,993.64
2023-04-30T10:58:55.364Z,993.74
2023-04-30T10:59:55.534Z,993.74
2023-04-30T11:00:55.199Z,993.69
2023-04-30T11:01:55.208Z,993.62
2023-04-30T11:02:55.070Z,993.73
2023-04-30T11:03:54.977Z,993.86
2023-04-30T11:04:54.909Z,993.72
2023-04-30T11:05:54.879Z,993.81
2023-04-30T11:06:54.773Z,993.84
2023-04-30T11:07:54.698Z,993.86
2023-04-30T11:08:54.601Z,993.62
2023-04-30T11:09:54.763Z,993.70
2023-04-30T11:10:54.460Z,993.61
2023-04-30T11:11:54.380Z,993.56
2023-04-30T11:12:54.331Z,993.64
2023-04-30T11:13:54.232Z,993.57
2023-04-30T11:14:54.152Z,993.61
2023-04-30T11:15:54.486Z,993.59
2023-04-30T11:16:54.006Z,993.58
2023-04-30T11:17:54.245Z,993.54
2023-04-30T11:18:53.855Z,993.56
2023-04-30T11:19:53.955Z,993.53
2023-04-30T11:20:54.105Z,993.61
2023-04-30T11:21:53.635Z,993.52
2023-04-30T11:22:53.583Z,993.43
2023-04-30T11:23:53.493Z,993.44
2023-04-30T11:24:53.437Z,993.50
2023-04-30T11:25:53.337Z,993.48
2023-04-30T11:26:53.273Z,993.42
2023-04-30T11:27:53.203Z,993.43
2023-04-30T11:28:53.207Z,993.56
2023-04-30T11:29:53.443Z,993.50
2023-04-30T11:30:53.009Z,993.43
2023-04-30T11:31:52.931Z,993.42
2023-04-30T11:32:52.837Z,993.40
2023-04-30T11:33:52.757Z,993.44
2023-04-30T11:34:52.675Z,993.39
2023-04-30T11:35:52.603Z,993.40
2023-04-30T11:36:52.525Z,993.40
2023-04-30T11:37:52.507Z,993.37
2023-04-30T11:38:52.397Z,993.43
2023-04-30T11:39:52.322Z,993.39
2023-04-30T11:40:53.653Z,993.44
2023-04-30T11:41:52.156Z,993.50
2023-04-30T11:42:52.079Z,993.56
2023-04-30T11:43:52.012Z,993.54
2023-04-30T11:44:51.940Z,993.51
2023-04-30T11:45:51.860Z,993.47
2023-04-30T11:46:51.816Z,993.46
2023-04-30T11:47:51.840Z,993.47
2023-04-30T11:48:51.653Z,993.55
2023-04-30T11:49:51.597Z,993.58
2023-04-30T11:50:51.501Z,993.58
2023-04-30T11:53:33.844Z,993.56
2023-04-30T11:54:33.791Z,993.56
2023-04-30T11:55:33.711Z,993.56
2023-04-30T11:56:39.494Z,993.46
2023-04-30T11:57:33.559Z,993.52
2023-04-30T11:58:33.524Z,993.52
2023-04-30T12:00:15.921Z,993.58
2023-04-30T12:01:16.339Z,993.57
2023-04-30T12:02:15.835Z,993.67
2023-04-30T12:03:15.869Z,993.63
2023-04-30T12:04:15.842Z,993.60
2023-04-30T12:05:15.615Z,993.56
2023-04-30T12:07:15.928Z,993.36
2023-04-30T12:08:15.370Z,993.36
2023-04-30T12:09:15.306Z,993.34
2023-04-30T12:10:15.302Z,993.29
2023-04-30T12:11:15.165Z,993.82
2023-04-30T12:12:15.098Z,993.83
2023-04-30T12:13:15.187Z,993.78
2023-04-30T12:14:14.964Z,993.79
2023-04-30T12:15:14.893Z,993.28
2023-04-30T12:16:14.897Z,993.40
2023-04-30T12:17:14.764Z,993.79
2023-04-30T12:18:14.932Z,993.90
2023-04-30T12:19:14.680Z,993.96
2023-04-30T12:20:14.591Z,993.35
2023-04-30T12:21:14.536Z,993.44
2023-04-30T12:23:14.592Z,993.98
2023-04-30T12:25:14.269Z,994.00
2023-04-30T12:26:14.182Z,993.98
2023-04-30T12:29:35.034Z,994.05
2023-04-30T12:30:34.965Z,993.97
2023-04-30T12:31:34.674Z,994.06
2023-04-30T12:32:34.831Z,994.03
2023-04-30T12:33:34.529Z,994.02
2023-04-30T12:36:06.998Z,993.63
2023-04-30T12:38:07.216Z,993.44
2023-04-30T12:39:06.803Z,993.95
2023-04-30T12:40:06.778Z,993.89
2023-04-30T12:41:06.673Z,993.94
2023-04-30T12:42:06.627Z,993.97
2023-04-30T12:43:06.550Z,993.16
2023-04-30T12:44:07.493Z,993.60
2023-04-30T12:52:01.250Z,993.51
2023-04-30T12:57:26.702Z,993.24
2023-04-30T13:06:02.224Z,993.57
2023-04-30T13:07:02.305Z,993.57
2023-04-30T13:08:02.046Z,993.53
2023-04-30T13:09:01.976Z,993.48
2023-04-30T13:11:01.848Z,993.58
2023-04-30T13:12:01.776Z,993.70
2023-04-30T13:13:01.732Z,993.40
2023-04-30T13:18:51.030Z,993.52
2023-04-30T13:19:51.413Z,993.52
2023-04-30T13:20:50.901Z,993.48
2023-04-30T13:21:50.839Z,993.40
2023-04-30T13:22:50.769Z,993.37
2023-04-30T13:23:55.155Z,993.30
2023-04-30T13:24:53.268Z,993.35
2023-04-30T13:25:50.883Z,993.44
2023-04-30T13:26:50.530Z,993.33